Time;durP1;ratioP1;P1;durP2;ratioP2;P2;SDS_P1;SDS_P2;PMS_P1;PMS_P2;Temp;Humidity;BMP_temperature;BMP_pressure;BME280_temperature;BME280_humidity;BME280_pressure;Samples;Min_cycle;Max_cycle;Signal;HPM_P1;HPM_P2
2022/06/10 00:01:52;;;;;;;3.13;0.98;;;;;;;;;;10409861;28;20025;-43
2022/06/10 00:06:53;;;;;;;4.20;1.02;;;;;;;;;;10408122;28;20036;-42
2022/06/10 00:11:53;;;;;;;2.17;1.10;;;;;;;;;;10399042;28;20053;-43
2022/06/10 00:16:54;;;;;;;2.20;1.20;;;;;;;;;;10407906;28;20505;-44
2022/06/10 00:21:55;;;;;;;1.27;0.95;;;;;;;;;;10409005;28;20392;-42
2022/06/10 00:26:55;;;;;;;5.75;1.45;;;;;;;;;;10406877;28;20036;-46
2022/06/10 00:31:56;;;;;;;2.25;1.13;;;;;;;;;;10407357;28;20022;-42
2022/06/10 00:36:57;;;;;;;1.20;0.95;;;;;;;;;;10407747;28;20105;-46
2022/06/10 00:41:58;;;;;;;1.45;1.02;;;;;;;;;;10407030;28;20055;-46
2022/06/10 00:47:01;;;;;;;1.92;1.10;;;;;;;;;;10406282;28;20041;-45
2022/06/10 00:52:01;;;;;;;1.58;0.93;;;;;;;;;;10423294;28;20029;-45
2022/06/10 00:57:19;;;;;;;12.25;1.10;;;;;;;;;;10392154;28;20045;-48
2022/06/10 01:02:25;;;;;;;2.57;1.03;;;;;;;;;;10404430;28;20053;-47
2022/06/10 01:07:32;;;;;;;1.23;1.02;;;;;;;;;;10393246;28;20450;-42
2022/06/10 01:12:56;;;;;;;2.05;1.00;;;;;;;;;;10378707;28;20034;-46
2022/06/10 01:18:29;;;;;;;1.45;1.00;;;;;;;;;;10394007;28;20070;-42
2022/06/10 01:24:12;;;;;;;2.10;0.93;;;;;;;;;;10385231;28;20429;-44
2022/06/10 01:30:06;;;;;;;1.67;0.82;;;;;;;;;;10392794;28;20469;-47
2022/06/10 01:35:37;;;;;;;2.80;0.98;;;;;;;;;;10390249;28;20045;-42
2022/06/10 01:41:10;;;;;;;1.55;1.00;;;;;;;;;;10411779;28;20036;-42
2022/06/10 01:46:37;;;;;;;1.73;1.17;;;;;;;;;;10399679;28;20037;-43
2022/06/10 01:52:20;;;;;;;1.30;1.00;;;;;;;;;;10396934;28;20084;-43
2022/06/10 01:57:37;;;;;;;2.63;0.90;;;;;;;;;;10384090;28;20093;-42
2022/06/10 02:02:41;;;;;;;1.52;0.98;;;;;;;;;;10382286;28;20458;-42
2022/06/10 02:08:07;;;;;;;0.80;0.80;;;;;;;;;;10399265;28;20393;-43
2022/06/10 02:13:16;;;;;;;1.35;0.95;;;;;;;;;;10423496;28;20090;-43
2022/06/10 02:18:43;;;;;;;1.35;0.77;;;;;;;;;;10408682;28;20065;-43
2022/06/10 02:23:54;;;;;;;2.25;1.00;;;;;;;;;;10397129;28;20342;-42
2022/06/10 02:28:57;;;;;;;6.47;0.90;;;;;;;;;;10410176;28;20397;-42
2022/06/10 02:34:02;;;;;;;1.55;0.90;;;;;;;;;;10411380;28;20033;-42
2022/06/10 02:39:17;;;;;;;3.35;0.90;;;;;;;;;;10377007;28;20029;-42
2022/06/10 02:44:29;;;;;;;4.60;0.90;;;;;;;;;;10400736;28;20044;-42
2022/06/10 02:49:30;;;;;;;0.95;0.90;;;;;;;;;;10398987;28;20061;-43
2022/06/10 02:54:35;;;;;;;1.73;1.08;;;;;;;;;;10402108;28;20132;-42
2022/06/10 03:05:04;;;;;;;2.17;0.70;;;;;;;;;;10398426;28;20034;-42
2022/06/10 03:10:31;;;;;;;1.58;1.00;;;;;;;;;;10397863;28;20022;-43
2022/06/10 03:15:56;;;;;;;1.48;0.90;;;;;;;;;;10406845;28;20042;-42
2022/06/10 03:21:12;;;;;;;1.17;0.70;;;;;;;;;;10404347;28;20041;-43
2022/06/10 03:26:35;;;;;;;0.95;0.80;;;;;;;;;;10401069;28;20033;-42
2022/06/10 03:31:43;;;;;;;1.48;0.80;;;;;;;;;;10411592;28;20029;-42
2022/06/10 03:36:46;;;;;;;1.83;0.80;;;;;;;;;;10409925;28;20436;-42
2022/06/10 03:42:12;;;;;;;2.00;0.90;;;;;;;;;;10407399;28;20120;-42
2022/06/10 03:47:37;;;;;;;1.50;0.80;;;;;;;;;;10396461;28;20029;-45
2022/06/10 03:52:40;;;;;;;1.33;0.65;;;;;;;;;;10384696;28;20025;-43
2022/06/10 03:57:40;;;;;;;1.23;0.88;;;;;;;;;;10410289;28;20021;-45
2022/06/10 04:02:41;;;;;;;2.05;0.80;;;;;;;;;;10402295;28;20470;-42
2022/06/10 04:07:42;;;;;;;3.63;1.10;;;;;;;;;;10408442;28;20029;-48
2022/06/10 04:12:43;;;;;;;1.23;0.90;;;;;;;;;;10391992;28;20033;-43
2022/06/10 04:17:46;;;;;;;1.48;0.90;;;;;;;;;;10407559;28;20067;-42
2022/06/10 04:22:47;;;;;;;5.47;0.98;;;;;;;;;;10400737;28;20056;-42
2022/06/10 04:27:48;;;;;;;0.80;0.80;;;;;;;;;;10406401;28;20020;-42
2022/06/10 04:32:49;;;;;;;2.65;0.98;;;;;;;;;;10402086;28;20029;-42
2022/06/10 04:37:51;;;;;;;1.85;0.75;;;;;;;;;;10398648;28;20044;-42
2022/06/10 04:42:53;;;;;;;1.90;0.88;;;;;;;;;;10408145;28;20031;-42
2022/06/10 04:47:54;;;;;;;1.20;0.70;;;;;;;;;;10407152;28;20036;-42
2022/06/10 04:52:56;;;;;;;0.90;0.77;;;;;;;;;;10407805;28;20052;-45
2022/06/10 04:57:56;;;;;;;1.10;0.85;;;;;;;;;;10395863;28;20366;-45
2022/06/10 05:02:58;;;;;;;2.75;0.98;;;;;;;;;;10385797;28;20033;-45
2022/06/10 05:07:59;;;;;;;0.93;0.70;;;;;;;;;;10399198;28;20026;-47
2022/06/10 05:12:59;;;;;;;1.27;0.90;;;;;;;;;;10392643;28;20040;-45
2022/06/10 05:18:00;;;;;;;1.40;0.80;;;;;;;;;;10406115;28;20473;-46
2022/06/10 05:23:02;;;;;;;3.67;0.65;;;;;;;;;;10406820;28;20029;-51
2022/06/10 05:28:04;;;;;;;1.13;0.80;;;;;;;;;;10399627;28;20412;-43
2022/06/10 05:33:07;;;;;;;5.88;1.00;;;;;;;;;;10403669;28;20036;-44
2022/06/10 05:38:08;;;;;;;4.38;1.30;;;;;;;;;;10405277;28;20465;-43
2022/06/10 05:43:09;;;;;;;1.38;1.00;;;;;;;;;;10386887;28;20038;-44
2022/06/10 05:48:11;;;;;;;14.52;1.10;;;;;;;;;;10390765;28;20496;-44
2022/06/10 05:53:14;;;;;;;19.13;1.45;;;;;;;;;;10391727;28;20033;-43
2022/06/10 05:58:14;;;;;;;18.77;1.75;;;;;;;;;;10397344;28;20114;-48
2022/06/10 06:03:15;;;;;;;7.53;1.20;;;;;;;;;;10404304;28;20037;-48
2022/06/10 06:08:16;;;;;;;10.40;1.65;;;;;;;;;;10403317;28;20039;-46
2022/06/10 06:13:17;;;;;;;14.65;1.73;;;;;;;;;;10404530;28;20477;-48
2022/06/10 06:18:17;;;;;;;14.40;1.98;;;;;;;;;;10401195;28;20041;-48
2022/06/10 06:23:19;;;;;;;6.30;1.13;;;;;;;;;;10386756;28;20059;-48
2022/06/10 06:28:20;;;;;;;10.85;2.45;;;;;;;;;;10411996;28;20234;-45
2022/06/10 06:33:20;;;;;;;13.40;1.52;;;;;;;;;;10398580;28;20031;-48
2022/06/10 06:38:23;;;;;;;9.80;1.50;;;;;;;;;;10412151;28;20100;-48
2022/06/10 06:43:24;;;;;;;9.85;1.77;;;;;;;;;;10411008;28;20385;-43
2022/06/10 06:48:24;;;;;;;3.20;1.40;;;;;;;;;;10404675;28;20076;-47
2022/06/10 06:53:25;;;;;;;5.32;1.42;;;;;;;;;;10401519;28;20032;-45
2022/06/10 06:58:25;;;;;;;10.02;1.58;;;;;;;;;;10398798;28;20021;-45
2022/06/10 07:03:26;;;;;;;4.13;1.05;;;;;;;;;;10415650;28;20264;-45
2022/06/10 07:08:31;;;;;;;7.15;1.27;;;;;;;;;;10410879;28;20021;-46
2022/06/10 07:13:32;;;;;;;8.65;1.40;;;;;;;;;;10386662;28;20034;-45
2022/06/10 07:18:34;;;;;;;2.28;1.00;;;;;;;;;;10399291;28;20042;-44
2022/06/10 07:23:35;;;;;;;4.28;0.90;;;;;;;;;;10394080;28;20037;-43
2022/06/10 07:28:37;;;;;;;4.63;1.10;;;;;;;;;;10407435;28;20025;-43
2022/06/10 07:33:38;;;;;;;5.03;1.30;;;;;;;;;;10419630;28;20032;-44
2022/06/10 07:38:38;;;;;;;5.40;1.25;;;;;;;;;;10411140;28;20048;-43
2022/06/10 07:43:42;;;;;;;2.78;1.02;;;;;;;;;;10411782;28;20044;-49
2022/06/10 07:48:43;;;;;;;2.60;1.10;;;;;;;;;;10402842;28;20029;-46
2022/06/10 07:53:45;;;;;;;1.52;1.15;;;;;;;;;;10408087;28;20049;-52
2022/06/10 07:58:45;;;;;;;2.85;1.10;;;;;;;;;;10408245;28;20201;-45
2022/06/10 08:03:47;;;;;;;2.33;0.88;;;;;;;;;;10409922;28;20168;-52
2022/06/10 08:08:48;;;;;;;2.55;1.30;;;;;;;;;;10394678;28;20059;-51
2022/06/10 08:13:48;;;;;;;1.67;1.15;;;;;;;;;;10386716;28;20561;-48
2022/06/10 08:18:49;;;;;;;5.25;0.90;;;;;;;;;;10403353;28;20030;-50
2022/06/10 08:23:50;;;;;;;3.90;1.02;;;;;;;;;;10408063;28;20461;-52
2022/06/10 08:28:53;;;;;;;4.43;0.73;;;;;;;;;;10393730;28;20021;-49
2022/06/10 08:33:53;;;;;;;3.90;1.00;;;;;;;;;;10394909;28;20523;-51
2022/06/10 08:38:54;;;;;;;1.70;0.98;;;;;;;;;;10407667;28;20037;-52
2022/06/10 08:44:13;;;;;;;3.45;0.95;;;;;;;;;;10407539;28;20052;-48
2022/06/10 08:49:35;;;;;;;;;;;;;;;;;;10393998;28;20017;-50
2022/06/10 08:55:32;;;;;;;5.72;0.90;;;;;;;;;;10401237;28;19991;-48
2022/06/10 09:00:40;;;;;;;5.17;0.90;;;;;;;;;;10394272;28;20129;-51
2022/06/10 09:05:47;;;;;;;1.95;1.00;;;;;;;;;;10380799;28;20026;-53
2022/06/10 09:11:05;;;;;;;2.78;0.90;;;;;;;;;;10406807;28;20056;-47
2022/06/10 09:16:53;;;;;;;1.20;0.80;;;;;;;;;;10402948;28;20546;-51
2022/06/10 09:22:24;;;;;;;1.67;0.90;;;;;;;;;;10400946;28;20337;-51
2022/06/10 09:27:50;;;;;;;2.63;0.98;;;;;;;;;;10406436;28;20032;-50
2022/06/10 09:33:17;;;;;;;5.82;1.25;;;;;;;;;;10421426;28;20033;-52
2022/06/10 09:38:29;;;;;;;1.75;0.90;;;;;;;;;;10391656;28;20072;-47
2022/06/10 09:43:43;;;;;;;1.27;0.98;;;;;;;;;;10392534;28;20041;-45
2022/06/10 09:49:29;;;;;;;2.05;0.70;;;;;;;;;;10394067;28;20038;-46
2022/06/10 09:55:26;;;;;;;0.88;0.60;;;;;;;;;;10378203;28;20413;-47
2022/06/10 10:01:00;;;;;;;2.73;0.67;;;;;;;;;;10325570;28;20355;-46
2022/06/10 10:06:37;;;;;;;1.48;0.80;;;;;;;;;;10338871;28;20071;-46
2022/06/10 10:12:08;;;;;;;0.65;0.63;;;;;;;;;;10345020;28;20073;-48
2022/06/10 10:17:36;;;;;;;7.20;1.05;;;;;;;;;;10352452;28;20493;-46
2022/06/10 10:22:53;;;;;;;4.85;0.77;;;;;;;;;;10365607;28;20045;-45
2022/06/10 10:27:55;;;;;;;3.00;0.75;;;;;;;;;;10325293;28;20035;-46
2022/06/10 10:33:03;;;;;;;4.30;1.00;;;;;;;;;;10386983;28;20040;-44
2022/06/10 10:38:27;;;;;;;2.00;0.70;;;;;;;;;;10413035;28;20033;-46
2022/06/10 10:43:31;;;;;;;8.02;0.90;;;;;;;;;;10394903;28;20038;-45
2022/06/10 10:48:43;;;;;;;4.72;0.93;;;;;;;;;;10398177;28;20112;-46
2022/06/10 10:53:55;;;;;;;3.40;1.00;;;;;;;;;;10399592;28;20511;-46
2022/06/10 10:58:57;;;;;;;4.45;0.82;;;;;;;;;;10399040;28;20436;-46
2022/06/10 11:03:58;;;;;;;2.78;0.70;;;;;;;;;;10412617;28;20134;-47
2022/06/10 11:09:22;;;;;;;4.03;0.70;;;;;;;;;;10399002;28;20083;-48
2022/06/10 11:14:33;;;;;;;0.70;0.70;;;;;;;;;;10404680;28;20029;-45
2022/06/10 11:19:53;;;;;;;12.07;1.30;;;;;;;;;;10403572;28;20054;-47
2022/06/10 11:25:02;;;;;;;13.60;1.05;;;;;;;;;;10409227;28;20033;-48
2022/06/10 11:30:13;;;;;;;1.58;0.50;;;;;;;;;;10407164;28;20021;-48
2022/06/10 11:35:31;;;;;;;2.40;1.00;;;;;;;;;;10409283;28;20072;-46
2022/06/10 11:40:49;;;;;;;8.27;1.00;;;;;;;;;;10412479;28;20540;-45
2022/06/10 11:46:02;;;;;;;1.33;0.50;;;;;;;;;;10403897;28;20031;-46
2022/06/10 11:51:09;;;;;;;0.55;0.40;;;;;;;;;;10407134;28;20036;-46
2022/06/10 12:01:47;;;;;;;0.52;0.50;;;;;;;;;;10406878;28;20465;-45
2022/06/10 12:06:53;;;;;;;6.57;0.80;;;;;;;;;;10402114;28;20026;-48
2022/06/10 12:12:19;;;;;;;3.15;0.95;;;;;;;;;;10396713;28;20033;-49
2022/06/10 12:17:34;;;;;;;1.17;0.50;;;;;;;;;;10397554;28;20072;-49
2022/06/10 12:22:35;;;;;;;4.10;0.80;;;;;;;;;;10400126;28;20030;-51
2022/06/10 12:27:44;;;;;;;0.80;0.60;;;;;;;;;;10403041;28;20029;-53
2022/06/10 12:33:24;;;;;;;0.93;0.55;;;;;;;;;;10392727;28;20035;-48
2022/06/10 12:38:37;;;;;;;23.67;2.00;;;;;;;;;;10385014;28;20038;-48
2022/06/10 12:43:42;;;;;;;20.27;1.60;;;;;;;;;;10400848;28;20108;-51
2022/06/10 12:48:46;;;;;;;7.47;1.30;;;;;;;;;;10406810;28;20029;-50
2022/06/10 12:53:56;;;;;;;12.10;0.90;;;;;;;;;;10398155;28;20029;-54
2022/06/10 12:59:09;;;;;;;6.70;0.95;;;;;;;;;;10388251;28;20022;-52
2022/06/10 13:04:25;;;;;;;2.83;0.90;;;;;;;;;;10394829;28;20041;-51
2022/06/10 13:09:35;;;;;;;13.07;1.65;;;;;;;;;;10398623;28;20174;-45
2022/06/10 13:14:44;;;;;;;14.40;1.45;;;;;;;;;;10395535;28;20044;-47
2022/06/10 13:19:53;;;;;;;9.70;1.48;;;;;;;;;;10404973;28;20049;-45
2022/06/10 13:24:54;;;;;;;10.80;1.52;;;;;;;;;;10400878;28;20053;-45
2022/06/10 13:30:18;;;;;;;5.43;1.50;;;;;;;;;;10395901;28;20091;-49
2022/06/10 13:35:32;;;;;;;8.02;1.17;;;;;;;;;;10414981;28;20524;-46
2022/06/10 13:40:47;;;;;;;12.82;1.20;;;;;;;;;;10416142;28;20077;-47
2022/06/10 13:45:49;;;;;;;11.88;1.38;;;;;;;;;;10403236;28;20028;-49
2022/06/10 13:56:29;;;;;;;11.80;1.23;;;;;;;;;;10397839;28;20077;-44
2022/06/10 14:01:34;;;;;;;5.80;1.50;;;;;;;;;;10404924;28;20064;-44
2022/06/10 14:06:50;;;;;;;5.60;0.95;;;;;;;;;;10420849;28;20022;-46
2022/06/10 14:12:27;;;;;;;8.93;1.30;;;;;;;;;;10415626;28;20026;-47
2022/06/10 14:17:28;;;;;;;6.97;1.10;;;;;;;;;;10408785;28;20047;-48
2022/06/10 14:22:34;;;;;;;2.75;1.17;;;;;;;;;;10409219;28;20441;-46
2022/06/10 14:27:35;;;;;;;3.80;1.10;;;;;;;;;;10408567;28;20029;-48
2022/06/10 14:32:36;;;;;;;6.57;1.23;;;;;;;;;;10410930;28;20445;-49
2022/06/10 14:37:39;;;;;;;2.97;0.95;;;;;;;;;;10409467;28;20045;-46
2022/06/10 14:43:00;;;;;;;7.13;1.40;;;;;;;;;;10409620;28;20080;-48
2022/06/10 14:48:44;;;;;;;8.13;1.27;;;;;;;;;;10397096;28;20107;-48
2022/06/10 14:53:50;;;;;;;3.20;1.08;;;;;;;;;;10398509;28;20474;-44
2022/06/10 14:58:51;;;;;;;4.03;1.30;;;;;;;;;;10411388;28;20063;-46
2022/06/10 15:03:52;;;;;;;3.67;0.93;;;;;;;;;;10409850;28;20537;-48
2022/06/10 15:09:18;;;;;;;5.47;1.20;;;;;;;;;;10411656;28;20503;-48
2022/06/10 15:14:19;;;;;;;8.88;1.40;;;;;;;;;;10410099;28;20026;-49
2022/06/10 15:19:20;;;;;;;4.63;1.10;;;;;;;;;;10409540;28;20049;-51
2022/06/10 15:24:25;;;;;;;3.03;0.90;;;;;;;;;;10411512;28;20080;-48
2022/06/10 15:29:28;;;;;;;2.78;1.20;;;;;;;;;;10411257;28;20025;-47
2022/06/10 15:34:29;;;;;;;4.13;1.30;;;;;;;;;;10410614;28;20079;-46
2022/06/10 15:44:54;;;;;;;7.90;1.25;;;;;;;;;;10404644;28;20061;-46
2022/06/10 15:49:54;;;;;;;4.68;1.10;;;;;;;;;;10410198;28;20045;-47
2022/06/10 16:00:26;;;;;;;7.40;1.13;;;;;;;;;;10422605;28;20033;-48
2022/06/10 16:05:36;;;;;;;5.53;1.10;;;;;;;;;;10408302;28;20032;-49
2022/06/10 16:10:50;;;;;;;4.07;1.15;;;;;;;;;;10408733;28;20044;-46
2022/06/10 16:15:53;;;;;;;5.25;0.93;;;;;;;;;;10402577;28;20521;-49
2022/06/10 16:20:56;;;;;;;3.15;1.00;;;;;;;;;;10403265;28;20029;-47
2022/06/10 16:26:01;;;;;;;4.78;1.15;;;;;;;;;;10408021;28;20033;-49
2022/06/10 16:31:02;;;;;;;4.20;1.45;;;;;;;;;;10399729;28;20481;-47
2022/06/10 16:36:03;;;;;;;11.40;1.55;;;;;;;;;;10403543;28;20033;-52
2022/06/10 16:41:15;;;;;;;3.88;1.05;;;;;;;;;;10404945;28;20041;-47
2022/06/10 16:46:19;;;;;;;3.63;1.38;;;;;;;;;;10405733;28;20045;-49
2022/06/10 16:51:19;;;;;;;2.08;1.02;;;;;;;;;;10404447;28;20448;-49
2022/06/10 16:56:28;;;;;;;4.97;1.20;;;;;;;;;;10403359;28;20029;-49
2022/06/10 17:01:32;;;;;;;3.92;1.23;;;;;;;;;;10406163;28;20437;-46
2022/06/10 17:06:33;;;;;;;3.60;1.17;;;;;;;;;;10390572;28;20025;-47
2022/06/10 17:11:43;;;;;;;8.48;1.20;;;;;;;;;;10407594;28;20384;-48
2022/06/10 17:16:44;;;;;;;4.65;1.10;;;;;;;;;;10403689;28;20557;-49
2022/06/10 17:21:45;;;;;;;5.38;1.20;;;;;;;;;;10406609;28;20205;-49
2022/06/10 17:26:51;;;;;;;2.28;0.80;;;;;;;;;;10403317;28;20435;-47
2022/06/10 17:31:53;;;;;;;4.63;1.27;;;;;;;;;;10405232;28;20385;-49
2022/06/10 17:36:56;;;;;;;4.00;1.20;;;;;;;;;;10401916;28;20086;-50
2022/06/10 17:41:56;;;;;;;2.30;1.17;;;;;;;;;;10405554;28;20036;-46
2022/06/10 17:47:04;;;;;;;4.25;1.10;;;;;;;;;;10406522;28;20037;-47
2022/06/10 17:52:19;;;;;;;1.90;0.80;;;;;;;;;;10406343;28;20033;-47
2022/06/10 17:57:50;;;;;;;2.13;0.90;;;;;;;;;;10400359;28;20036;-45
2022/06/10 18:02:54;;;;;;;4.68;1.33;;;;;;;;;;10398351;28;20053;-45
2022/06/10 18:08:00;;;;;;;7.25;1.05;;;;;;;;;;10410390;28;20068;-47
2022/06/10 18:18:43;;;;;;;2.90;1.05;;;;;;;;;;10399611;28;20049;-46
2022/06/10 18:23:46;;;;;;;3.03;1.10;;;;;;;;;;10406001;28;20113;-46
2022/06/10 18:28:46;;;;;;;2.20;1.23;;;;;;;;;;10402302;28;20063;-47
2022/06/10 18:33:47;;;;;;;2.15;1.10;;;;;;;;;;10404336;28;20112;-45
2022/06/10 18:38:48;;;;;;;1.83;1.15;;;;;;;;;;10404915;28;20113;-46
2022/06/10 18:43:49;;;;;;;3.88;1.00;;;;;;;;;;10403062;28;20025;-47
2022/06/10 18:48:57;;;;;;;6.30;0.90;;;;;;;;;;10405609;28;20036;-48
2022/06/10 18:54:00;;;;;;;1.92;1.00;;;;;;;;;;10409573;28;20033;-45
2022/06/10 18:59:01;;;;;;;1.60;1.13;;;;;;;;;;10408059;28;20029;-47
2022/06/10 19:04:13;;;;;;;3.00;1.00;;;;;;;;;;10411264;28;20037;-48
2022/06/10 19:09:24;;;;;;;1.65;0.90;;;;;;;;;;10416840;28;20508;-49
2022/06/10 19:14:26;;;;;;;5.55;1.30;;;;;;;;;;10403156;28;20055;-45
2022/06/10 19:19:36;;;;;;;1.48;1.10;;;;;;;;;;10414084;28;20060;-48
2022/06/10 19:24:38;;;;;;;4.15;1.63;;;;;;;;;;10424126;28;20033;-47
2022/06/10 19:29:38;;;;;;;8.07;1.48;;;;;;;;;;10421017;28;20025;-47
2022/06/10 19:34:48;;;;;;;2.60;1.40;;;;;;;;;;10419035;28;20037;-48
2022/06/10 19:39:51;;;;;;;3.00;1.52;;;;;;;;;;10406883;28;20685;-46
2022/06/10 19:44:52;;;;;;;2.72;1.35;;;;;;;;;;10405009;28;20029;-46
2022/06/10 19:50:00;;;;;;;4.00;1.73;;;;;;;;;;10406181;28;20416;-47
2022/06/10 19:55:12;;;;;;;6.18;1.90;;;;;;;;;;10415389;28;20049;-47
2022/06/10 20:00:14;;;;;;;3.67;1.70;;;;;;;;;;10415427;28;20103;-48
2022/06/10 20:05:28;;;;;;;2.03;1.65;;;;;;;;;;10409222;28;20026;-47
2022/06/10 20:10:34;;;;;;;3.08;1.60;;;;;;;;;;10407787;28;20095;-48
2022/06/10 20:15:46;;;;;;;7.85;1.90;;;;;;;;;;10412089;28;20052;-47
2022/06/10 20:20:49;;;;;;;2.55;1.77;;;;;;;;;;10406660;28;20064;-48
2022/06/10 20:25:52;;;;;;;8.68;1.95;;;;;;;;;;10392366;28;20088;-46
2022/06/10 20:30:57;;;;;;;8.75;2.00;;;;;;;;;;10381837;28;20465;-45
2022/06/10 20:36:03;;;;;;;17.58;2.28;;;;;;;;;;10391758;28;20091;-49
2022/06/10 20:41:04;;;;;;;21.50;2.40;;;;;;;;;;10402546;28;20033;-46
2022/06/10 20:46:08;;;;;;;9.30;1.90;;;;;;;;;;10405630;28;20279;-45
2022/06/10 20:51:36;;;;;;;17.10;2.45;;;;;;;;;;10402287;28;20030;-46
2022/06/10 20:56:36;;;;;;;6.13;2.15;;;;;;;;;;10389635;28;20040;-46
2022/06/10 21:01:47;;;;;;;4.32;1.77;;;;;;;;;;10400026;28;20040;-46
2022/06/10 21:12:09;;;;;;;3.95;1.85;;;;;;;;;;10405649;28;20026;-47
2022/06/10 21:17:21;;;;;;;5.55;2.00;;;;;;;;;;10392778;28;20041;-46
2022/06/10 21:22:23;;;;;;;4.03;2.20;;;;;;;;;;10399404;28;20030;-46
2022/06/10 21:27:25;;;;;;;6.40;2.05;;;;;;;;;;10401963;28;20104;-46
2022/06/10 21:32:26;;;;;;;6.82;1.90;;;;;;;;;;10405203;28;20079;-47
2022/06/10 21:37:27;;;;;;;3.55;2.17;;;;;;;;;;10405550;28;20091;-46
2022/06/10 21:47:49;;;;;;;6.90;2.17;;;;;;;;;;10405778;28;20124;-46
2022/06/10 21:52:54;;;;;;;7.43;2.75;;;;;;;;;;10399073;28;20058;-46
2022/06/10 21:57:56;;;;;;;7.45;2.58;;;;;;;;;;10401133;28;20037;-49
2022/06/10 22:02:57;;;;;;;5.85;2.28;;;;;;;;;;10410584;28;20037;-49
2022/06/10 22:07:57;;;;;;;11.23;2.28;;;;;;;;;;10412247;28;20025;-47
2022/06/10 22:13:00;;;;;;;7.20;2.10;;;;;;;;;;10412607;28;20041;-48
2022/06/10 22:18:14;;;;;;;18.67;2.15;;;;;;;;;;10412135;28;20042;-46
2022/06/10 22:23:25;;;;;;;7.25;2.10;;;;;;;;;;10388394;28;20273;-46
2022/06/10 22:28:26;;;;;;;3.10;1.98;;;;;;;;;;10401087;28;20060;-44
2022/06/10 22:33:39;;;;;;;4.40;1.95;;;;;;;;;;10412778;28;20041;-44
2022/06/10 22:38:45;;;;;;;9.50;2.20;;;;;;;;;;10413437;28;20108;-44
2022/06/10 22:43:46;;;;;;;4.57;1.85;;;;;;;;;;10411561;28;20037;-43
2022/06/10 22:48:47;;;;;;;3.33;1.60;;;;;;;;;;10413077;28;20029;-44
2022/06/10 22:53:48;;;;;;;7.00;2.00;;;;;;;;;;10412968;28;20045;-43
2022/06/10 22:58:49;;;;;;;7.13;2.05;;;;;;;;;;10412315;28;20438;-44
2022/06/10 23:04:00;;;;;;;5.97;1.90;;;;;;;;;;10410903;28;20187;-43
2022/06/10 23:14:31;;;;;;;4.78;1.48;;;;;;;;;;10385866;28;20025;-44
2022/06/10 23:19:40;;;;;;;3.60;1.45;;;;;;;;;;10411477;28;20190;-45
2022/06/10 23:24:40;;;;;;;18.67;1.98;;;;;;;;;;10386179;28;20040;-44
2022/06/10 23:29:41;;;;;;;8.48;1.88;;;;;;;;;;10410098;28;20041;-43
2022/06/10 23:34:42;;;;;;;5.07;1.67;;;;;;;;;;10409641;28;20041;-43
2022/06/10 23:39:42;;;;;;;4.80;1.60;;;;;;;;;;10401573;28;20088;-46
2022/06/10 23:44:43;;;;;;;6.72;2.20;;;;;;;;;;10402692;28;20535;-44
